createdAt,value
2023-02-02T16:05:02.793Z,62.65
2023-02-02T16:10:08.623Z,70.78
2023-02-02T16:15:25.335Z,62.75
2023-02-02T16:20:33.799Z,61.03
2023-02-02T16:25:47.304Z,69.60
2023-02-02T16:30:53.430Z,83.80
2023-02-02T16:35:57.690Z,72.78
2023-02-02T16:41:02.164Z,55.03
2023-02-02T16:46:18.095Z,74.45
2023-02-02T16:51:33.915Z,75.03
2023-02-02T16:56:41.747Z,70.70
2023-02-02T17:02:25.002Z,81.82
2023-02-02T17:12:34.889Z,71.63
2023-02-02T17:17:39.722Z,84.38
2023-02-02T17:22:49.096Z,78.53
2023-02-02T17:27:55.112Z,63.22
2023-02-02T17:32:58.864Z,68.32
2023-02-02T17:38:03.970Z,98.00
2023-02-02T17:43:14.653Z,82.90
2023-02-02T17:48:21.584Z,81.47
2023-02-02T17:53:25.917Z,80.82
2023-02-02T17:58:30.214Z,87.32
2023-02-02T18:03:38.162Z,127.35
2023-02-02T18:08:42.020Z,123.15
2023-02-02T18:13:46.389Z,82.60
2023-02-02T18:18:50.587Z,107.50
2023-02-02T18:23:55.569Z,91.80
2023-02-02T18:28:59.667Z,158.05
2023-02-02T18:34:03.583Z,127.72
2023-02-02T18:39:08.183Z,119.30
2023-02-02T18:44:12.553Z,115.45
2023-02-02T18:49:17.385Z,183.07
2023-02-02T18:54:22.664Z,191.82
2023-02-02T18:59:28.726Z,216.68
2023-02-02T19:04:33.121Z,174.10
2023-02-02T19:09:37.660Z,167.70
2023-02-02T19:14:42.706Z,181.23
2023-02-02T19:19:46.467Z,87.97
2023-02-02T19:24:51.555Z,180.10
2023-02-02T19:30:00.482Z,134.55
2023-02-02T19:35:15.917Z,112.38
2023-02-02T19:40:25.786Z,115.65
2023-02-02T19:45:33.387Z,108.97
2023-02-02T19:50:41.212Z,99.20
2023-02-02T19:55:45.456Z,117.32
2023-02-02T20:00:50.725Z,150.32
2023-02-02T20:05:57.550Z,97.30
2023-02-02T20:11:19.889Z,111.05
2023-02-02T20:16:25.561Z,145.88
2023-02-02T20:21:44.172Z,119.10
2023-02-02T20:26:48.671Z,94.72
2023-02-02T20:31:55.644Z,104.53
2023-02-02T20:37:26.569Z,83.35
2023-02-02T20:42:30.715Z,105.75
2023-02-02T20:47:34.832Z,137.38
2023-02-02T20:52:38.655Z,142.10
2023-02-02T20:57:42.821Z,171.30
2023-02-02T21:02:48.857Z,123.90
2023-02-02T21:07:55.663Z,173.20
2023-02-02T21:12:59.972Z,145.48
2023-02-02T21:18:04.558Z,133.68
2023-02-02T21:23:10.010Z,111.60
2023-02-02T21:28:15.235Z,187.07
2023-02-02T21:33:20.171Z,159.20
2023-02-02T21:38:24.284Z,150.77
2023-02-02T21:43:28.689Z,169.50
2023-02-02T21:48:38.983Z,171.27
2023-02-02T21:53:42.729Z,148.10
2023-02-02T21:58:48.353Z,124.78
2023-02-02T22:03:52.051Z,121.25
2023-02-02T22:09:21.580Z,122.68
2023-02-02T22:14:46.243Z,99.18
2023-02-02T22:20:16.888Z,109.13
2023-02-02T22:25:37.717Z,116.28
2023-02-02T22:30:42.475Z,122.22
2023-02-02T22:35:46.768Z,118.90
2023-02-02T22:40:52.618Z,119.32
2023-02-02T22:45:56.478Z,130.25
2023-02-02T22:51:00.772Z,160.88
2023-02-02T22:56:06.039Z,142.35
2023-02-02T23:01:11.970Z,129.50
2023-02-02T23:06:16.097Z,99.70
2023-02-02T23:11:21.025Z,100.90
2023-02-02T23:16:25.891Z,96.95
2023-02-02T23:21:30.029Z,89.93
2023-02-02T23:26:35.230Z,91.38
2023-02-02T23:31:39.141Z,83.07
2023-02-02T23:36:42.787Z,100.28
2023-02-02T23:41:47.154Z,179.52
2023-02-02T23:46:51.922Z,120.72
2023-02-02T23:51:56.321Z,130.90
2023-02-02T23:57:01.158Z,115.07
